Rechercher aéroport 
image banner adimage banner ad
image banner ad

DAUO - El Oued / Guemar

Situé à El Oued, Algeria

ICAO - DAUO, IATA - ELU

Données fournies par Airmate  

Information générale

Coordonnées: N33°30'47" E6°46'57"
Élévation : 203 feet MSL.
 
Voir autres Aéroports à El Oued Province

Données opérationnelles

Accessible au public
Heure actuelle UTC:
Heure actuelle locale:
Météo
METAR: DAUO 230700Z 20004KT 9999 FEW033 28/13 Q1014
TAF: TAF DAUO 230500Z 2306/2315 15008KT 9999 SCT033 PROB30 TEMPO 2306/2309 FEW030TCU
Voir NOTAMs / SUP AIP / TFR affectant cet aéroport [VIEW]
Fréquences de communication: [VIEW]

Pistes:

Identifiant RWYQFULongueur (ft)Largeur (ft)SurfaceLDA (ft)
13130°9843148
31310°9843148
0220°656298ASP
20200°656298

Coordonnées de l'aéroport

Adresse: El Oued Algeria

Vue satellite de DAUO